Time;durP1;ratioP1;P1;durP2;ratioP2;P2;SDS_P1;SDS_P2;PMS_P1;PMS_P2;Temp;Humidity;BMP_temperature;BMP_pressure;BME280_temperature;BME280_humidity;BME280_pressure;Samples;Min_cycle;Max_cycle;Signal;HPM_P1;HPM_P2
2024/02/10 00:02:03;;;;;;;0.30;0.20;;;;;;;11.71;100.00;97535.28;5053936;28;20446;-49
2024/02/10 00:04:30;;;;;;;0.30;0.20;;;;;;;11.86;100.00;97533.28;5058003;28;20462;-49
2024/02/10 00:06:57;;;;;;;0.30;0.20;;;;;;;11.88;100.00;97534.00;5071631;28;20489;-49
2024/02/10 00:09:23;;;;;;;0.30;0.20;;;;;;;11.65;100.00;97526.91;5053195;28;20918;-49
2024/02/10 00:11:50;;;;;;;0.30;0.20;;;;;;;11.65;100.00;97533.09;5071263;28;20442;-50
2024/02/10 00:14:18;;;;;;;0.30;0.20;;;;;;;11.72;100.00;97531.66;5056087;28;20442;-49
2024/02/10 00:16:45;;;;;;;0.30;0.20;;;;;;;11.84;100.00;97522.75;5071499;28;20444;-50
2024/02/10 00:19:12;;;;;;;0.30;0.20;;;;;;;11.94;100.00;97528.22;5044560;28;20537;-50
2024/02/10 00:21:38;;;;;;;0.30;0.20;;;;;;;11.94;100.00;97535.34;5071344;28;20429;-50
2024/02/10 00:24:05;;;;;;;0.30;0.20;;;;;;;12.04;100.00;97523.81;5042505;28;20456;-49
2024/02/10 00:26:33;;;;;;;0.30;0.20;;;;;;;11.97;100.00;97524.44;5063090;28;20485;-50
2024/02/10 00:29:01;;;;;;;0.30;0.20;;;;;;;12.03;100.00;97524.81;5071100;28;20449;-50
2024/02/10 00:31:28;;;;;;;0.30;0.20;;;;;;;12.19;100.00;97534.22;5071296;28;20452;-49
2024/02/10 00:33:57;;;;;;;0.30;0.20;;;;;;;12.07;100.00;97520.94;5071056;28;20424;-50
2024/02/10 00:36:24;;;;;;;0.30;0.20;;;;;;;11.90;100.00;97524.06;5070935;28;20436;-50
2024/02/10 00:38:51;;;;;;;0.30;0.20;;;;;;;11.94;100.00;97519.38;5043591;28;20986;-49
2024/02/10 00:41:19;;;;;;;0.30;0.20;;;;;;;11.84;100.00;97520.09;5071010;28;20951;-50
2024/02/10 00:43:46;;;;;;;0.30;0.20;;;;;;;11.95;100.00;97524.56;5074252;28;20450;-50
2024/02/10 00:46:15;;;;;;;0.30;0.20;;;;;;;11.91;100.00;97524.91;5073478;28;20517;-50
2024/02/10 00:48:43;;;;;;;0.30;0.20;;;;;;;12.03;100.00;97521.28;5069038;28;20502;-49
2024/02/10 00:51:10;;;;;;;0.30;0.20;;;;;;;11.90;100.00;97513.41;5074537;28;20910;-48
2024/02/10 00:53:39;;;;;;;0.30;0.20;;;;;;;11.76;100.00;97516.28;5074528;28;20521;-48
2024/02/10 00:56:10;;;;;;;0.30;0.20;;;;;;;11.89;100.00;97513.53;5074431;28;20501;-49
2024/02/10 00:58:40;;;;;;;0.30;0.20;;;;;;;11.89;100.00;97518.88;5072495;28;20529;-49
2024/02/10 01:01:12;;;;;;;0.30;0.20;;;;;;;11.86;100.00;97517.31;5064292;28;20425;-49
2024/02/10 01:03:46;;;;;;;0.30;0.20;;;;;;;11.97;100.00;97519.97;5074473;28;20883;-49
2024/02/10 01:06:15;;;;;;;0.30;0.20;;;;;;;12.05;100.00;97520.19;5052111;28;20475;-48
2024/02/10 01:08:48;;;;;;;0.30;0.20;;;;;;;11.86;100.00;97517.31;5070672;28;20420;-49
2024/02/10 01:11:19;;;;;;;0.30;0.20;;;;;;;11.89;100.00;97522.38;5074300;28;20816;-49
2024/02/10 01:13:49;;;;;;;0.30;0.20;;;;;;;11.90;100.00;97518.75;5047767;28;20839;-50
2024/02/10 01:16:17;;;;;;;0.30;0.20;;;;;;;11.95;100.00;97515.75;5073935;28;20487;-50
2024/02/10 01:18:45;;;;;;;0.30;0.20;;;;;;;11.80;100.00;97510.66;5074278;28;20443;-49
2024/02/10 01:21:12;;;;;;;0.30;0.20;;;;;;;11.94;100.00;97520.22;5074203;28;20450;-50
2024/02/10 01:23:40;;;;;;;0.30;0.20;;;;;;;12.00;100.00;97514.41;5074235;28;20450;-50
2024/02/10 01:26:08;;;;;;;0.30;0.20;;;;;;;11.99;100.00;97518.03;5069770;28;21013;-50
2024/02/10 01:28:35;;;;;;;0.30;0.20;;;;;;;11.93;100.00;97515.03;5073988;28;20456;-50
2024/02/10 01:31:08;;;;;;;0.30;0.20;;;;;;;11.68;100.00;97518.72;5073805;28;20483;-50
2024/02/10 01:33:34;;;;;;;0.30;0.20;;;;;;;11.81;100.00;97523.00;5073918;28;21025;-50
2024/02/10 01:36:05;;;;;;;0.30;0.20;;;;;;;11.85;100.00;97518.28;5073967;28;20489;-50
2024/02/10 01:38:37;;;;;;;0.30;0.20;;;;;;;11.84;100.00;97517.44;5074046;28;20893;-50
2024/02/10 01:41:04;;;;;;;0.30;0.20;;;;;;;11.75;100.00;97515.44;5049522;28;20452;-50
2024/02/10 01:43:30;;;;;;;0.30;0.20;;;;;;;11.73;100.00;97514.72;5057824;28;20529;-49
2024/02/10 01:45:57;;;;;;;0.30;0.20;;;;;;;11.66;100.00;97510.84;5073551;28;20467;-49
2024/02/10 01:48:24;;;;;;;0.30;0.20;;;;;;;11.58;100.00;97502.59;5066826;28;20465;-48
2024/02/10 01:50:50;;;;;;;0.30;0.20;;;;;;;11.53;100.00;97505.63;5073398;28;20874;-48
2024/02/10 01:53:17;;;;;;;0.30;0.20;;;;;;;11.56;100.00;97500.06;5073343;28;20537;-49
2024/02/10 01:55:43;;;;;;;0.30;0.20;;;;;;;11.66;100.00;97496.72;5063149;28;20559;-48
2024/02/10 01:58:10;;;;;;;0.30;0.20;;;;;;;11.49;100.00;97498.00;5049380;28;20538;-50
2024/02/10 02:00:38;;;;;;;0.30;0.20;;;;;;;11.50;100.00;97489.88;5071671;28;20485;-50
2024/02/10 02:03:05;;;;;;;0.30;0.20;;;;;;;11.70;100.00;97501.66;5073815;28;20467;-50
2024/02/10 02:05:33;;;;;;;0.30;0.20;;;;;;;11.67;100.00;97493.06;5067143;28;21002;-49
2024/02/10 02:08:04;;;;;;;0.30;0.20;;;;;;;11.70;100.00;97498.16;5066293;28;20493;-50
2024/02/10 02:10:32;;;;;;;0.30;0.20;;;;;;;11.69;100.00;97497.31;5073590;28;20438;-50
2024/02/10 02:12:58;;;;;;;0.40;0.20;;;;;;;11.74;100.00;97499.59;5073224;28;20454;-49
2024/02/10 02:15:30;;;;;;;0.30;0.20;;;;;;;11.90;100.00;97492.13;5073224;28;20471;-49
2024/02/10 02:17:57;;;;;;;0.30;0.20;;;;;;;11.78;100.00;97487.72;5072963;28;20452;-49
2024/02/10 02:20:25;;;;;;;0.30;0.20;;;;;;;11.67;100.00;97495.72;5073006;28;20429;-49
2024/02/10 02:22:53;;;;;;;0.30;0.20;;;;;;;11.51;100.00;97494.28;5072893;28;20493;-49
2024/02/10 02:25:21;;;;;;;0.30;0.20;;;;;;;11.51;100.00;97488.94;5070095;28;20480;-49
2024/02/10 02:27:48;;;;;;;0.30;0.20;;;;;;;11.53;100.00;97487.00;5072795;28;20878;-49
2024/02/10 02:30:16;;;;;;;0.30;0.20;;;;;;;11.49;100.00;97485.53;5072736;28;20929;-50
2024/02/10 02:32:42;;;;;;;0.30;0.20;;;;;;;11.69;100.00;97488.47;5072615;28;20456;-50
2024/02/10 02:35:09;;;;;;;0.30;0.20;;;;;;;11.74;100.00;97487.13;5073187;28;20497;-50
2024/02/10 02:37:40;;;;;;;0.30;0.20;;;;;;;11.81;100.00;97485.75;5072469;28;20522;-50
2024/02/10 02:40:12;;;;;;;0.30;0.20;;;;;;;11.92;100.00;97482.19;5072111;28;20450;-50
2024/02/10 02:42:39;;;;;;;0.30;0.20;;;;;;;11.95;100.00;97478.47;5072602;28;20452;-50
2024/02/10 02:45:10;;;;;;;0.30;0.20;;;;;;;12.03;100.00;97481.34;5072660;28;20454;-50
2024/02/10 02:47:37;;;;;;;0.30;0.20;;;;;;;12.02;100.00;97477.84;5064846;28;20850;-50
2024/02/10 02:50:08;;;;;;;0.30;0.20;;;;;;;11.92;100.00;97476.03;5072520;28;20457;-50
2024/02/10 02:52:38;;;;;;;0.30;0.20;;;;;;;11.91;100.00;97475.19;5072378;28;20452;-50
2024/02/10 02:55:11;;;;;;;0.30;0.20;;;;;;;11.76;100.00;97468.38;5062699;28;20497;-49
2024/02/10 02:57:39;;;;;;;0.30;0.20;;;;;;;11.82;100.00;97468.78;5064588;28;20421;-49
2024/02/10 03:00:06;;;;;;;0.30;0.20;;;;;;;11.98;100.00;97463.09;5066855;28;20423;-49
2024/02/10 03:02:41;;;;;;;0.30;0.20;;;;;;;11.84;100.00;97471.34;5072144;28;20421;-49
2024/02/10 03:05:10;;;;;;;0.30;0.20;;;;;;;11.83;100.00;97462.50;5071595;28;20473;-49
2024/02/10 03:07:42;;;;;;;0.30;0.20;;;;;;;11.94;100.00;97461.66;5072261;28;20470;-49
2024/02/10 03:10:10;;;;;;;0.30;0.20;;;;;;;11.96;100.00;97462.38;5071934;28;20453;-49
2024/02/10 03:12:36;;;;;;;0.30;0.20;;;;;;;12.07;100.00;97467.69;5071893;28;20540;-49
2024/02/10 03:15:04;;;;;;;0.30;0.20;;;;;;;12.04;100.00;97473.25;5071752;28;20449;-49
2024/02/10 03:17:31;;;;;;;0.30;0.20;;;;;;;11.88;100.00;97469.25;5050257;28;20433;-49
2024/02/10 03:20:00;;;;;;;0.30;0.20;;;;;;;11.65;100.00;97465.72;5067635;28;20503;-49
2024/02/10 03:22:27;;;;;;;0.30;0.20;;;;;;;11.64;100.00;97466.69;5072083;28;20453;-49
2024/02/10 03:24:54;;;;;;;0.63;0.63;;;;;;;11.60;100.00;97471.41;5068566;28;20445;-49
2024/02/10 03:27:21;;;;;;;0.30;0.20;;;;;;;11.55;100.00;97466.44;5071888;28;20572;-49
2024/02/10 03:29:51;;;;;;;0.30;0.20;;;;;;;11.57;100.00;97456.53;5071658;28;20901;-49
2024/02/10 03:32:17;;;;;;;0.30;0.20;;;;;;;11.63;100.00;97457.00;5071907;28;20450;-49
2024/02/10 03:34:44;;;;;;;0.30;0.20;;;;;;;11.52;100.00;97456.06;5071914;28;20469;-49
2024/02/10 03:37:12;;;;;;;0.30;0.20;;;;;;;11.57;100.00;97455.69;5071758;28;20424;-49
2024/02/10 03:39:39;;;;;;;0.30;0.20;;;;;;;11.64;100.00;97454.22;5038713;28;20798;-49
2024/02/10 03:42:05;;;;;;;0.30;0.20;;;;;;;11.63;100.00;97457.84;5064782;28;20960;-49
2024/02/10 03:44:32;;;;;;;0.30;0.20;;;;;;;11.73;100.00;97456.16;5058576;28;20547;-49
2024/02/10 03:47:01;;;;;;;0.30;0.20;;;;;;;11.79;100.00;97460.22;5051787;28;20496;-49
2024/02/10 03:49:28;;;;;;;0.30;0.20;;;;;;;11.74;100.00;97457.88;5071731;28;20533;-49
2024/02/10 03:51:55;;;;;;;0.30;0.20;;;;;;;11.51;100.00;97449.06;5044325;28;20458;-49
2024/02/10 03:54:22;;;;;;;0.30;0.20;;;;;;;11.59;100.00;97448.44;5067504;28;20769;-49
2024/02/10 03:56:49;;;;;;;0.30;0.20;;;;;;;11.57;100.00;97445.88;5065618;28;20432;-49
2024/02/10 03:59:16;;;;;;;0.30;0.20;;;;;;;11.53;100.00;97441.78;5071754;28;20454;-49
2024/02/10 04:01:43;;;;;;;0.30;0.20;;;;;;;11.54;100.00;97445.28;5069062;28;20541;-49
2024/02/10 04:04:10;;;;;;;0.30;0.20;;;;;;;11.57;100.00;97440.56;5047869;28;20468;-49
2024/02/10 04:06:39;;;;;;;0.30;0.20;;;;;;;11.59;100.00;97440.44;5071151;28;20529;-49
2024/02/10 04:09:07;;;;;;;0.30;0.20;;;;;;;11.66;100.00;97446.16;5071419;28;20445;-49
2024/02/10 04:11:34;;;;;;;0.30;0.20;;;;;;;11.67;100.00;97442.53;5053188;28;20846;-49
2024/02/10 04:14:00;;;;;;;0.30;0.20;;;;;;;11.59;100.00;97451.09;5071336;28;20858;-49
2024/02/10 04:16:27;;;;;;;0.30;0.20;;;;;;;11.78;100.00;97448.66;5069731;28;20463;-49
2024/02/10 04:18:54;;;;;;;0.30;0.20;;;;;;;11.76;100.00;97436.44;5065008;28;21044;-50
2024/02/10 04:21:20;;;;;;;0.30;0.20;;;;;;;11.83;100.00;97443.88;5069794;28;20457;-49
2024/02/10 04:23:47;;;;;;;0.30;0.20;;;;;;;11.85;100.00;97435.75;5054765;28;20432;-49
2024/02/10 04:26:13;;;;;;;0.30;0.20;;;;;;;11.92;100.00;97428.13;5072205;28;20520;-49
2024/02/10 04:28:40;;;;;;;0.30;0.20;;;;;;;11.83;100.00;97425.25;5075310;28;20428;-49
2024/02/10 04:31:07;;;;;;;0.30;0.20;;;;;;;11.96;100.00;97424.25;5075123;28;20424;-49
2024/02/10 04:33:34;;;;;;;0.30;0.20;;;;;;;11.94;100.00;97420.88;5075243;28;20449;-49
2024/02/10 04:36:01;;;;;;;0.30;0.20;;;;;;;11.69;100.00;97429.94;5074934;28;20502;-49
2024/02/10 04:38:27;;;;;;;0.30;0.20;;;;;;;11.67;100.00;97438.03;5074931;28;20478;-49
2024/02/10 04:40:54;;;;;;;0.30;0.20;;;;;;;11.69;100.00;97432.59;5060737;28;20964;-49
2024/02/10 04:43:20;;;;;;;0.30;0.20;;;;;;;11.68;100.00;97438.88;5075118;28;20824;-49
2024/02/10 04:45:48;;;;;;;0.40;0.30;;;;;;;11.67;100.00;97424.75;5074654;28;20553;-49
2024/02/10 04:48:18;;;;;;;0.30;0.20;;;;;;;11.74;100.00;97430.41;5056669;28;20869;-49
2024/02/10 04:50:45;;;;;;;0.30;0.20;;;;;;;11.78;100.00;97430.03;5072445;28;20920;-49
2024/02/10 04:53:11;;;;;;;0.30;0.20;;;;;;;11.75;100.00;97424.97;5074595;28;21036;-49
2024/02/10 04:55:41;;;;;;;0.30;0.20;;;;;;;11.71;100.00;97428.84;5057481;28;20572;-49
2024/02/10 04:58:08;;;;;;;0.30;0.20;;;;;;;11.69;100.00;97429.94;5075029;28;20440;-49
2024/02/10 05:00:34;;;;;;;0.30;0.20;;;;;;;11.63;100.00;97428.59;5048009;28;20420;-49
2024/02/10 05:03:02;;;;;;;0.30;0.20;;;;;;;11.69;100.00;97438.75;5074585;28;20519;-50
2024/02/10 05:05:29;;;;;;;0.30;0.20;;;;;;;11.60;100.00;97438.63;5074214;28;20469;-49
2024/02/10 05:07:56;;;;;;;0.30;0.20;;;;;;;11.58;100.00;97438.75;5074602;28;20654;-49
2024/02/10 05:10:24;;;;;;;0.30;0.20;;;;;;;11.63;100.00;97439.22;5047473;28;20449;-49
2024/02/10 05:12:52;;;;;;;0.30;0.20;;;;;;;11.56;100.00;97430.91;5074439;28;20460;-49
2024/02/10 05:15:21;;;;;;;0.30;0.20;;;;;;;11.71;100.00;97426.19;5074107;28;20854;-49
2024/02/10 05:17:51;;;;;;;0.30;0.20;;;;;;;12.04;100.00;97433.31;5074170;28;20492;-49
2024/02/10 05:20:21;;;;;;;0.30;0.20;;;;;;;12.05;100.00;97437.66;5048982;28;20423;-49
2024/02/10 05:22:56;;;;;;;1.33;1.33;;;;;;;12.29;100.00;97444.66;5073115;28;20456;-50
2024/02/10 05:25:27;;;;;;;0.30;0.20;;;;;;;12.28;100.00;97442.97;5066528;28;20469;-50
2024/02/10 05:27:57;;;;;;;0.30;0.20;;;;;;;12.23;100.00;97445.16;5067359;28;20487;-49
2024/02/10 05:30:24;;;;;;;0.30;0.20;;;;;;;12.25;100.00;97440.56;5054141;28;20959;-49
2024/02/10 05:32:52;;;;;;;0.30;0.20;;;;;;;12.02;100.00;97442.41;5074207;28;20804;-49
2024/02/10 05:35:20;;;;;;;0.30;0.20;;;;;;;11.60;100.00;97433.31;5074162;28;20470;-49
2024/02/10 05:37:48;;;;;;;0.30;0.20;;;;;;;11.54;100.00;97445.28;5074032;28;20417;-49
2024/02/10 05:40:16;;;;;;;0.30;0.23;;;;;;;11.64;100.00;97440.06;5061801;28;20549;-49
2024/02/10 05:42:44;;;;;;;0.30;0.20;;;;;;;11.75;100.00;97454.22;5072302;28;20947;-49
2024/02/10 05:45:16;;;;;;;0.30;0.20;;;;;;;11.76;100.00;97442.63;5073628;28;20496;-49
2024/02/10 05:47:50;;;;;;;0.30;0.20;;;;;;;11.67;100.00;97443.38;5067147;28;20494;-49
2024/02/10 05:50:19;;;;;;;0.30;0.20;;;;;;;11.84;100.00;97439.41;5073793;28;20923;-49
2024/02/10 05:52:46;;;;;;;0.33;0.20;;;;;;;11.83;100.00;97440.38;5065943;28;20447;-50
2024/02/10 05:55:21;;;;;;;0.30;0.20;;;;;;;11.77;100.00;97449.63;5058773;28;20482;-49
2024/02/10 05:57:48;;;;;;;0.30;0.20;;;;;;;11.83;100.00;97453.66;5073691;28;20419;-49
2024/02/10 06:00:16;;;;;;;0.30;0.20;;;;;;;11.79;100.00;97449.56;5073711;28;20456;-49
2024/02/10 06:02:42;;;;;;;0.30;0.20;;;;;;;11.74;100.00;97447.22;5073473;28;20446;-49
2024/02/10 06:05:10;;;;;;;0.30;0.20;;;;;;;11.63;100.00;97447.22;5073091;28;20485;-49
2024/02/10 06:07:37;;;;;;;0.30;0.20;;;;;;;11.75;100.00;97448.91;5073198;28;20569;-49
2024/02/10 06:10:12;;;;;;;0.30;0.20;;;;;;;11.77;100.00;97449.63;5072754;28;20442;-49
2024/02/10 06:12:40;;;;;;;0.30;0.20;;;;;;;11.72;100.00;97445.66;5073259;28;20991;-49
2024/02/10 06:15:10;;;;;;;0.30;0.20;;;;;;;11.69;100.00;97452.06;5073100;28;20554;-49
2024/02/10 06:17:38;;;;;;;0.30;0.20;;;;;;;11.66;100.00;97454.13;5073782;28;20446;-49
2024/02/10 06:20:14;;;;;;;0.30;0.20;;;;;;;11.62;100.00;97452.66;5073593;28;20432;-49
2024/02/10 06:22:42;;;;;;;0.30;0.20;;;;;;;11.56;100.00;97449.53;5072694;28;20544;-49
2024/02/10 06:25:12;;;;;;;0.30;0.20;;;;;;;11.61;100.00;97445.66;5061455;28;20452;-49
2024/02/10 06:27:41;;;;;;;0.30;0.20;;;;;;;11.60;100.00;97449.28;5073905;28;20836;-48
2024/02/10 06:30:13;;;;;;;0.30;0.20;;;;;;;11.60;100.00;97446.63;5074077;28;20424;-49
2024/02/10 06:32:40;;;;;;;0.30;0.20;;;;;;;11.63;100.00;97444.56;5072600;28;20971;-49
2024/02/10 06:35:08;;;;;;;0.30;0.20;;;;;;;11.62;100.00;97450.00;5072638;28;20441;-49
2024/02/10 06:37:40;;;;;;;0.30;0.20;;;;;;;11.52;100.00;97452.56;5072574;28;21305;-49
2024/02/10 06:40:08;;;;;;;0.30;0.20;;;;;;;11.54;100.00;97455.94;5071414;28;20420;-49
2024/02/10 06:42:36;;;;;;;0.30;0.20;;;;;;;11.57;100.00;97455.69;5059353;28;20935;-49
2024/02/10 06:45:10;;;;;;;0.30;0.20;;;;;;;11.69;100.00;97459.22;5072408;28;20466;-49
2024/02/10 06:47:37;;;;;;;0.30;0.20;;;;;;;11.54;100.00;97456.78;5064949;28;20464;-49
2024/02/10 06:50:04;;;;;;;0.30;0.20;;;;;;;11.56;100.00;97465.47;5072585;28;20507;-49
2024/02/10 06:52:37;;;;;;;0.50;0.50;;;;;;;11.62;100.00;97463.31;5072250;28;20428;-49
2024/02/10 06:55:06;;;;;;;0.30;0.20;;;;;;;11.56;100.00;97468.16;5062726;28;20479;-49
2024/02/10 06:57:33;;;;;;;0.30;0.20;;;;;;;11.54;100.00;97459.44;5072247;28;20496;-49
2024/02/10 07:00:14;;;;;;;0.30;0.20;;;;;;;11.38;100.00;97469.59;5071895;28;20529;-49
2024/02/10 07:02:48;;;;;;;0.30;0.20;;;;;;;11.32;100.00;97477.16;5120194;27;20520;-51
2024/02/10 07:05:17;;;;;;;0.30;0.20;;;;;;;11.44;100.00;97477.06;5129740;27;20470;-51
2024/02/10 07:07:48;;;;;;;0.30;0.20;;;;;;;11.50;100.00;97481.91;5118313;27;20839;-51
2024/02/10 07:10:19;;;;;;;0.30;0.20;;;;;;;11.55;100.00;97482.41;5128333;28;20439;-51
2024/02/10 07:12:47;;;;;;;0.30;0.20;;;;;;;11.41;100.00;97477.31;5128449;28;20426;-51
2024/02/10 07:15:24;;;;;;;0.30;0.20;;;;;;;11.43;100.00;97482.50;5129489;27;20470;-51
2024/02/10 07:17:52;;;;;;;0.30;0.20;;;;;;;11.57;100.00;97484.94;5129657;27;20451;-51
2024/02/10 07:20:20;;;;;;;0.30;0.20;;;;;;;11.61;100.00;97489.06;5129790;27;20534;-51
2024/02/10 07:22:49;;;;;;;0.30;0.20;;;;;;;11.61;100.00;97489.06;5129420;28;20559;-51
2024/02/10 07:25:16;;;;;;;0.30;0.20;;;;;;;11.67;100.00;97499.25;5126091;27;20894;-52
2024/02/10 07:27:46;;;;;;;0.30;0.20;;;;;;;11.82;100.00;97497.22;5129651;27;20417;-50
2024/02/10 07:30:14;;;;;;;0.30;0.20;;;;;;;11.60;100.00;97492.69;5129567;27;20884;-50
2024/02/10 07:32:41;;;;;;;0.30;0.20;;;;;;;11.68;100.00;97498.28;5129849;27;20509;-50
2024/02/10 07:35:07;;;;;;;0.30;0.20;;;;;;;11.76;100.00;97487.00;5129992;27;20474;-49
2024/02/10 07:37:35;;;;;;;0.30;0.20;;;;;;;11.95;100.00;97483.81;5129918;27;20430;-50
2024/02/10 07:40:03;;;;;;;0.30;0.20;;;;;;;11.95;100.00;97487.31;5119402;27;20444;-50
2024/02/10 07:42:30;;;;;;;0.30;0.20;;;;;;;11.97;100.00;97489.84;5126748;28;20483;-50
2024/02/10 07:44:56;;;;;;;0.30;0.20;;;;;;;12.03;100.00;97489.34;5130041;28;20831;-50
2024/02/10 07:47:23;;;;;;;0.30;0.20;;;;;;;12.01;100.00;97483.28;5122548;27;20430;-49
2024/02/10 07:49:52;;;;;;;0.30;0.20;;;;;;;11.92;100.00;97490.19;5129850;27;20422;-50
2024/02/10 07:52:19;;;;;;;0.30;0.20;;;;;;;11.94;100.00;97488.28;5130421;27;20418;-50
2024/02/10 07:54:47;;;;;;;0.30;0.20;;;;;;;11.83;100.00;97480.28;5121706;27;20481;-50
2024/02/10 07:57:22;;;;;;;0.30;0.20;;;;;;;12.02;100.00;97485.84;5126505;28;20895;-50
2024/02/10 07:59:56;;;;;;;0.30;0.20;;;;;;;11.84;100.00;97489.97;5129289;27;20530;-50
2024/02/10 08:02:27;;;;;;;0.30;0.20;;;;;;;11.92;100.00;97490.19;5128823;27;20556;-50
2024/02/10 08:04:56;;;;;;;6.90;6.27;;;;;;;11.98;100.00;97494.19;5128856;27;20547;-50
2024/02/10 08:07:29;;;;;;;0.30;0.20;;;;;;;11.94;100.00;97485.63;5128903;27;20550;-50
2024/02/10 08:09:58;;;;;;;1.17;1.17;;;;;;;12.07;100.00;97488.16;5128715;27;20414;-50
2024/02/10 08:12:26;;;;;;;0.30;0.20;;;;;;;12.07;100.00;97489.00;5125043;27;20584;-50
2024/02/10 08:14:54;;;;;;;0.30;0.20;;;;;;;11.72;100.00;97488.22;5114535;28;20859;-50
2024/02/10 08:17:24;;;;;;;0.30;0.20;;;;;;;11.62;100.00;97484.59;5114782;28;20792;-50
2024/02/10 08:19:51;;;;;;;0.30;0.20;;;;;;;11.71;100.00;97482.06;5111097;28;21052;-50
2024/02/10 08:22:18;;;;;;;0.30;0.20;;;;;;;11.63;100.00;97484.47;5105250;28;20490;-50
2024/02/10 08:24:47;;;;;;;0.30;0.20;;;;;;;11.59;100.00;97493.66;5111512;28;20460;-50
2024/02/10 08:27:15;;;;;;;0.40;0.37;;;;;;;11.57;100.00;97493.78;5114418;28;20929;-50
2024/02/10 08:29:42;;;;;;;0.63;0.63;;;;;;;11.55;100.00;97493.06;5114355;28;20918;-50
2024/02/10 08:32:16;;;;;;;0.30;0.20;;;;;;;11.69;100.00;97494.66;5114862;27;20523;-50
2024/02/10 08:34:43;;;;;;;0.30;0.20;;;;;;;11.68;100.00;97500.09;5114528;27;20495;-50
2024/02/10 08:37:13;;;;;;;0.30;0.20;;;;;;;11.68;100.00;97495.63;5114472;27;20452;-50
2024/02/10 08:39:44;;;;;;;0.30;0.20;;;;;;;11.72;100.00;97496.22;5107235;28;20544;-50
2024/02/10 08:42:14;;;;;;;0.30;0.20;;;;;;;11.59;100.00;97491.00;5107967;28;20458;-50
2024/02/10 08:44:44;;;;;;;0.30;0.20;;;;;;;11.69;100.00;97483.16;5114731;28;20534;-50
2024/02/10 08:47:10;;;;;;;0.30;0.20;;;;;;;11.86;100.00;97485.38;5106812;28;20781;-50
2024/02/10 08:49:38;;;;;;;0.30;0.20;;;;;;;11.95;100.00;97483.81;5114465;28;20531;-50
2024/02/10 08:52:15;;;;;;;0.30;0.20;;;;;;;11.91;100.00;97485.84;5114063;28;20502;-50
2024/02/10 08:54:44;;;;;;;0.30;0.20;;;;;;;11.97;100.00;97480.03;5107019;28;20488;-50
2024/02/10 08:57:11;;;;;;;0.30;0.20;;;;;;;11.78;100.00;97477.09;5112490;28;20565;-48
2024/02/10 08:59:45;;;;;;;0.30;0.20;;;;;;;11.84;100.00;97468.66;5114399;28;20539;-47
2024/02/10 09:02:12;;;;;;;0.30;0.20;;;;;;;11.97;100.00;97468.53;5113937;27;20461;-48
2024/02/10 09:04:39;;;;;;;0.30;0.20;;;;;;;12.05;100.00;97466.94;5114025;28;21008;-47
2024/02/10 09:07:06;;;;;;;0.30;0.20;;;;;;;12.06;100.00;97468.66;5113652;28;20444;-50
2024/02/10 09:09:34;;;;;;;0.30;0.20;;;;;;;12.08;100.00;97465.88;5114188;28;20467;-48
2024/02/10 09:12:00;;;;;;;0.30;0.20;;;;;;;11.93;100.00;97464.44;5113757;28;20567;-49
2024/02/10 09:14:27;;;;;;;0.30;0.20;;;;;;;12.23;100.00;97466.47;5113906;28;20415;-49
2024/02/10 09:16:53;;;;;;;0.30;0.20;;;;;;;12.39;100.00;97465.09;5113781;28;20441;-48
2024/02/10 09:19:20;;;;;;;0.30;0.20;;;;;;;12.24;100.00;97463.66;5113952;28;20451;-48
2024/02/10 09:21:57;;;;;;;0.30;0.20;;;;;;;12.20;100.00;97456.03;5113493;28;20903;-49
2024/02/10 09:24:26;;;;;;;0.30;0.30;;;;;;;12.42;100.00;97461.31;5109789;28;20457;-49
2024/02/10 09:26:53;;;;;;;0.30;0.20;;;;;;;12.37;100.00;97460.88;5113739;28;20543;-49
2024/02/10 09:29:20;;;;;;;1.40;1.40;;;;;;;12.19;100.00;97459.66;5113505;28;20529;-48
2024/02/10 09:31:47;;;;;;;0.30;0.20;;;;;;;12.31;100.00;97458.69;5113479;28;20444;-50
2024/02/10 09:34:15;;;;;;;0.30;0.20;;;;;;;12.40;100.00;97457.94;5111952;28;20448;-48
2024/02/10 09:36:43;;;;;;;0.30;0.20;;;;;;;12.23;100.00;97456.66;5113358;28;20442;-49
2024/02/10 09:39:13;;;;;;;0.30;0.20;;;;;;;12.14;100.00;97452.91;5110103;28;20461;-49
2024/02/10 09:41:42;;;;;;;0.30;0.20;;;;;;;12.23;100.00;97450.47;5103203;28;20479;-50
2024/02/10 09:44:10;;;;;;;0.33;0.20;;;;;;;12.25;100.00;97453.88;5113227;28;20423;-50
2024/02/10 09:46:38;;;;;;;0.30;0.20;;;;;;;12.51;100.00;97449.09;5108445;27;20455;-50
2024/02/10 09:49:09;;;;;;;0.30;0.20;;;;;;;12.57;100.00;97457.41;5110736;28;20449;-50
2024/02/10 09:51:40;;;;;;;0.30;0.20;;;;;;;12.66;100.00;97448.66;5113477;28;20451;-50
2024/02/10 09:54:13;;;;;;;0.30;0.20;;;;;;;12.57;100.00;97451.22;5111418;28;20507;-50
2024/02/10 09:56:41;;;;;;;0.30;0.20;;;;;;;12.42;100.00;97459.50;5106338;28;20983;-50
2024/02/10 09:59:13;;;;;;;0.30;0.20;;;;;;;12.63;100.00;97456.91;5112888;28;20448;-49
2024/02/10 10:01:39;;;;;;;0.30;0.20;;;;;;;12.75;100.00;97458.56;5112630;28;20492;-50
2024/02/10 10:04:10;;;;;;;0.30;0.20;;;;;;;12.82;100.00;97455.38;5111773;28;20422;-49
2024/02/10 10:06:43;;;;;;;0.30;0.20;;;;;;;12.65;100.00;97462.13;5111172;28;20984;-50
2024/02/10 10:09:12;;;;;;;0.30;0.20;;;;;;;12.56;100.00;97465.53;5112573;28;20493;-50
2024/02/10 10:11:40;;;;;;;0.30;0.20;;;;;;;12.57;100.00;97467.22;5112286;28;20440;-50
2024/02/10 10:14:07;;;;;;;0.30;0.20;;;;;;;12.80;100.00;97465.31;5113088;28;20779;-49
2024/02/10 10:16:35;;;;;;;0.30;0.20;;;;;;;12.95;100.00;97470.22;5112575;28;20442;-50
2024/02/10 10:19:02;;;;;;;0.30;0.20;;;;;;;12.93;100.00;97469.50;5112616;28;20463;-50
2024/02/10 10:21:30;;;;;;;0.30;0.20;;;;;;;12.88;100.00;97473.50;5112638;28;20430;-50
2024/02/10 10:23:57;;;;;;;0.30;0.20;;;;;;;12.87;100.00;97475.34;5112044;28;20458;-49
2024/02/10 10:26:25;;;;;;;0.30;0.20;;;;;;;12.92;100.00;97474.97;5110069;28;20468;-49
2024/02/10 10:28:52;;;;;;;0.30;0.20;;;;;;;12.94;100.00;97475.69;5112525;28;20454;-50
2024/02/10 10:31:19;;;;;;;0.30;0.20;;;;;;;13.24;100.00;97481.13;5112129;28;20434;-49
2024/02/10 10:33:50;;;;;;;0.30;0.20;;;;;;;13.20;100.00;97481.53;5111531;28;20443;-49
2024/02/10 10:36:17;;;;;;;0.30;0.20;;;;;;;13.33;100.00;97479.53;5112104;28;20449;-49
2024/02/10 10:38:47;;;;;;;0.30;0.20;;;;;;;13.22;100.00;97483.09;5111899;28;20447;-50
2024/02/10 10:41:18;;;;;;;0.30;0.20;;;;;;;13.21;100.00;97478.75;5097532;28;20882;-50
2024/02/10 10:43:46;;;;;;;0.30;0.20;;;;;;;13.31;100.00;97479.66;5112100;28;20444;-50
2024/02/10 10:46:16;;;;;;;0.30;0.20;;;;;;;13.32;100.00;97468.00;5103770;28;20439;-51
2024/02/10 10:48:48;;;;;;;0.30;0.20;;;;;;;13.25;100.00;97465.97;5100534;28;20493;-49
2024/02/10 10:51:17;;;;;;;0.30;0.20;;;;;;;13.07;100.00;97470.19;5112088;28;20470;-49
2024/02/10 10:53:48;;;;;;;0.30;0.20;;;;;;;12.81;100.00;97464.34;5111814;28;20500;-49
2024/02/10 10:56:23;;;;;;;0.30;0.20;;;;;;;12.62;100.00;97463.22;5101361;28;20840;-49
2024/02/10 10:58:59;;;;;;;0.30;0.20;;;;;;;12.70;100.00;97458.09;5111946;28;20501;-50
2024/02/10 11:01:27;;;;;;;0.30;0.20;;;;;;;12.84;100.00;97448.09;5111781;28;20448;-49
2024/02/10 11:03:55;;;;;;;0.30;0.20;;;;;;;12.82;100.00;97445.56;5098131;28;20552;-49
2024/02/10 11:06:22;;;;;;;0.30;0.20;;;;;;;12.77;100.00;97441.59;5110694;28;20899;-49
2024/02/10 11:08:53;;;;;;;0.30;0.20;;;;;;;12.70;100.00;97443.91;5111833;28;20422;-48
2024/02/10 11:11:20;;;;;;;0.30;0.20;;;;;;;12.83;100.00;97433.06;5111710;28;20441;-48
2024/02/10 11:13:47;;;;;;;0.30;0.20;;;;;;;12.82;100.00;97442.06;5110558;28;20415;-49
2024/02/10 11:16:14;;;;;;;0.30;0.20;;;;;;;12.74;100.00;97435.53;5111645;28;20557;-50
2024/02/10 11:18:45;;;;;;;0.30;0.20;;;;;;;12.73;100.00;97435.66;5111973;28;20949;-49
2024/02/10 11:21:25;;;;;;;0.30;0.20;;;;;;;12.72;100.00;97436.63;5110689;28;20447;-49
2024/02/10 11:24:08;;;;;;;0.30;0.20;;;;;;;12.89;100.00;97430.75;5110886;28;20462;-49
2024/02/10 11:26:39;;;;;;;0.30;0.20;;;;;;;13.00;100.00;97424.50;5109169;28;20439;-49
2024/02/10 11:29:13;;;;;;;0.30;0.20;;;;;;;13.09;100.00;97421.06;5110591;28;20451;-49
2024/02/10 11:31:40;;;;;;;0.30;0.20;;;;;;;13.22;100.00;97413.75;5086032;28;20442;-48